Time;durP1;ratioP1;P1;durP2;ratioP2;P2;SDS_P1;SDS_P2;PMS_P1;PMS_P2;Temp;Humidity;BMP_temperature;BMP_pressure;BME280_temperature;BME280_humidity;BME280_pressure;Samples;Min_cycle;Max_cycle;Signal;HPM_P1;HPM_P2
2023/03/05 00:02:20;;;;;;;19.60;15.77;;;;;;;-0.45;100.00;97103.44;5068494;28;20221;-70
2023/03/05 00:04:48;;;;;;;22.23;15.00;;;;;;;-0.53;100.00;97098.81;5026906;28;20545;-69
2023/03/05 00:07:15;;;;;;;19.93;15.07;;;;;;;-0.53;100.00;97100.59;5065213;28;20194;-69
2023/03/05 00:09:43;;;;;;;18.70;14.37;;;;;;;-0.60;100.00;97090.63;5073277;28;20825;-69
2023/03/05 00:12:11;;;;;;;16.47;13.70;;;;;;;-0.56;100.00;97093.03;5052461;28;20225;-70
2023/03/05 00:14:38;;;;;;;19.47;15.77;;;;;;;-0.58;100.00;97090.53;5074936;28;20360;-69
2023/03/05 00:17:06;;;;;;;19.50;15.13;;;;;;;-0.64;100.00;97097.03;5066405;28;20194;-68
2023/03/05 00:19:35;;;;;;;21.63;14.80;;;;;;;-0.65;100.00;97084.16;5015949;28;20331;-68
2023/03/05 00:22:02;;;;;;;21.53;16.23;;;;;;;-0.66;100.00;97090.28;5071523;28;20209;-72
2023/03/05 00:24:30;;;;;;;21.50;15.93;;;;;;;-0.67;100.00;97091.25;5067719;28;20222;-70
2023/03/05 00:26:58;;;;;;;21.13;16.57;;;;;;;-0.66;100.00;97088.50;5058340;28;20202;-71
2023/03/05 00:29:26;;;;;;;21.07;15.27;;;;;;;-0.69;100.00;97086.13;5070060;28;20202;-68
2023/03/05 00:31:57;;;;;;;21.10;16.07;;;;;;;-0.66;100.00;97080.69;5070957;28;20209;-68
2023/03/05 00:34:26;;;;;;;24.13;15.73;;;;;;;-0.62;100.00;97078.72;5018812;28;20528;-69
2023/03/05 00:36:55;;;;;;;19.60;16.93;;;;;;;-0.63;100.00;97077.84;5068593;28;20203;-69
2023/03/05 00:39:23;;;;;;;21.17;16.90;;;;;;;-0.66;100.00;97074.69;5071949;28;20207;-69
2023/03/05 00:41:50;;;;;;;21.90;15.97;;;;;;;-0.62;100.00;97073.50;5051366;28;20623;-70
2023/03/05 00:44:18;;;;;;;20.27;15.23;;;;;;;-0.59;100.00;97074.06;5047908;28;20714;-70
2023/03/05 00:46:46;;;;;;;20.67;16.63;;;;;;;-0.64;100.00;97070.19;5068847;28;20743;-72
2023/03/05 00:49:14;;;;;;;22.00;16.43;;;;;;;-0.62;100.00;97069.09;5039507;28;20221;-69
2023/03/05 00:51:42;;;;;;;23.50;15.90;;;;;;;-0.56;100.00;97067.00;5050515;28;20423;-69
2023/03/05 00:54:11;;;;;;;21.10;15.80;;;;;;;-0.55;100.00;97061.66;5071758;28;20198;-71
2023/03/05 00:56:38;;;;;;;25.53;17.87;;;;;;;-0.50;100.00;97053.53;5052438;28;20439;-70
2023/03/05 00:59:06;;;;;;;22.90;17.23;;;;;;;-0.48;100.00;97054.22;5071187;28;20205;-70
2023/03/05 01:01:33;;;;;;;18.70;14.93;;;;;;;-0.48;100.00;97044.63;5063604;28;20198;-70
2023/03/05 01:04:01;;;;;;;25.50;16.90;;;;;;;-0.42;100.00;97045.94;5067600;28;20223;-70
2023/03/05 01:06:29;;;;;;;23.53;16.93;;;;;;;-0.48;100.00;97044.63;5014118;28;20831;-70
2023/03/05 01:08:58;;;;;;;19.70;15.50;;;;;;;-0.48;100.00;97041.22;5073512;28;20214;-69
2023/03/05 01:11:26;;;;;;;19.40;16.10;;;;;;;-0.42;100.00;97051.16;5070088;28;20828;-70
2023/03/05 01:13:54;;;;;;;18.87;16.03;;;;;;;-0.40;100.00;97043.22;5051225;28;20213;-70
2023/03/05 01:16:22;;;;;;;18.53;16.53;;;;;;;-0.38;100.00;97044.75;5065711;28;20313;-69
2023/03/05 01:18:49;;;;;;;22.77;15.87;;;;;;;-0.42;100.00;97045.94;5071115;28;20206;-70
2023/03/05 01:21:17;;;;;;;21.53;17.87;;;;;;;-0.33;100.00;97047.03;5030003;28;20646;-69
2023/03/05 01:23:45;;;;;;;23.63;16.20;;;;;;;-0.38;100.00;97036.94;5059948;28;20236;-69
2023/03/05 01:26:13;;;;;;;22.73;16.60;;;;;;;-0.47;100.00;97035.88;5070155;28;20221;-70
2023/03/05 01:28:42;;;;;;;18.77;16.40;;;;;;;-0.46;100.00;97031.50;5049830;28;20249;-69
2023/03/05 01:31:10;;;;;;;21.80;16.40;;;;;;;-0.42;100.00;97026.88;5067791;28;20573;-69
2023/03/05 01:33:38;;;;;;;19.83;15.63;;;;;;;-0.42;100.00;97027.72;5066678;28;20406;-70
2023/03/05 01:36:12;;;;;;;20.67;17.40;;;;;;;-0.54;100.00;97024.28;5072079;28;20629;-70
2023/03/05 01:38:40;;;;;;;22.80;17.53;;;;;;;-0.51;100.00;97018.03;5021605;28;20455;-69
2023/03/05 01:41:08;;;;;;;23.73;17.53;;;;;;;-0.48;100.00;97017.78;5069792;28;20207;-71
2023/03/05 01:43:36;;;;;;;26.10;17.77;;;;;;;-0.55;100.00;97012.22;5049085;28;20735;-68
2023/03/05 01:46:28;;;;;;;20.10;16.67;;;;;;;-0.53;100.00;97020.75;5068741;28;20221;-68
2023/03/05 01:49:00;;;;;;;25.97;19.03;;;;;;;-0.55;100.00;97020.03;5068558;28;20206;-70
2023/03/05 01:51:30;;;;;;;23.47;17.60;;;;;;;-0.60;100.00;97009.16;5063479;28;20496;-69
2023/03/05 01:53:58;;;;;;;25.33;18.90;;;;;;;-0.60;100.00;97007.34;5017769;28;20198;-69
2023/03/05 01:56:27;;;;;;;22.50;17.00;;;;;;;-0.57;100.00;97008.06;5066992;28;20225;-70
2023/03/05 01:59:02;;;;;;;23.50;17.67;;;;;;;-0.54;100.00;97007.84;5066303;28;20760;-70
2023/03/05 02:01:32;;;;;;;25.67;18.33;;;;;;;-0.53;100.00;97004.31;5049470;28;20428;-69
2023/03/05 02:04:00;;;;;;;24.07;18.00;;;;;;;-0.53;100.00;97010.31;5068030;28;20604;-70
2023/03/05 02:06:28;;;;;;;30.67;17.17;;;;;;;-0.49;100.00;97005.72;5063053;28;20559;-69
2023/03/05 02:08:56;;;;;;;22.53;19.63;;;;;;;-0.55;100.00;96999.22;5020178;28;20614;-70
2023/03/05 02:11:23;;;;;;;23.67;18.00;;;;;;;-0.54;100.00;97000.06;5066433;28;20210;-70
2023/03/05 02:13:51;;;;;;;22.60;17.93;;;;;;;-0.55;100.00;97001.81;5068485;28;20504;-70
2023/03/05 02:16:19;;;;;;;22.87;17.87;;;;;;;-0.53;100.00;96989.50;5047829;28;20674;-70
2023/03/05 02:18:47;;;;;;;22.47;18.13;;;;;;;-0.52;100.00;96985.13;5045650;28;20225;-71
2023/03/05 02:21:27;;;;;;;24.13;18.13;;;;;;;-0.53;100.00;96989.50;5064077;28;20206;-69
2023/03/05 02:23:55;;;;;;;24.20;18.57;;;;;;;-0.55;100.00;96974.97;5018322;28;20513;-69
2023/03/05 02:26:22;;;;;;;26.13;19.03;;;;;;;-0.53;100.00;96988.69;5064735;28;20328;-69
2023/03/05 02:28:53;;;;;;;22.97;18.00;;;;;;;-0.53;100.00;96989.50;5072342;28;20314;-70
2023/03/05 02:31:22;;;;;;;26.17;18.80;;;;;;;-0.55;100.00;96974.97;5043371;28;20241;-69
2023/03/05 02:33:51;;;;;;;24.37;18.37;;;;;;;-0.51;100.00;96979.00;5073246;28;20220;-70
2023/03/05 02:36:20;;;;;;;24.40;18.43;;;;;;;-0.46;100.00;96975.06;5066437;28;20495;-68
2023/03/05 02:38:47;;;;;;;25.53;17.27;;;;;;;-0.45;100.00;96973.31;5016304;28;20862;-69
2023/03/05 02:41:15;;;;;;;23.07;19.33;;;;;;;-0.44;100.00;96969.75;5066445;28;20218;-69
2023/03/05 02:43:43;;;;;;;26.20;19.07;;;;;;;-0.52;100.00;96972.13;5068307;28;20554;-70
2023/03/05 02:46:11;;;;;;;26.87;18.77;;;;;;;-0.53;100.00;96973.88;5046999;28;20800;-70
2023/03/05 02:48:38;;;;;;;24.77;18.57;;;;;;;-0.51;100.00;96960.78;5067989;28;20234;-70
2023/03/05 02:51:07;;;;;;;26.53;19.30;;;;;;;-0.47;100.00;96964.78;5065722;28;20395;-69
2023/03/05 02:53:36;;;;;;;27.33;20.00;;;;;;;-0.46;100.00;96969.03;5068763;28;20285;-70
2023/03/05 02:56:04;;;;;;;24.03;18.80;;;;;;;-0.46;100.00;96966.44;5020478;28;20925;-70
2023/03/05 02:58:32;;;;;;;29.03;19.40;;;;;;;-0.48;100.00;96961.34;5072983;28;20206;-70
2023/03/05 03:00:59;;;;;;;26.17;18.73;;;;;;;-0.51;100.00;96963.38;5050137;28;20464;-70
2023/03/05 03:03:27;;;;;;;24.57;18.80;;;;;;;-0.54;100.00;96958.41;5066647;28;20206;-69
2023/03/05 03:05:55;;;;;;;26.37;19.17;;;;;;;-0.50;100.00;96962.41;5068677;28;20618;-71
2023/03/05 03:08:22;;;;;;;22.97;18.07;;;;;;;-0.52;100.00;96965.13;5062520;28;20610;-70
2023/03/05 03:10:51;;;;;;;26.93;18.50;;;;;;;-0.56;100.00;96973.31;5020190;28;20221;-70
2023/03/05 03:13:19;;;;;;;23.43;18.73;;;;;;;-0.53;100.00;96962.66;5067790;28;20418;-70
2023/03/05 03:15:46;;;;;;;27.10;18.53;;;;;;;-0.49;100.00;96964.88;5068997;28;20309;-70
2023/03/05 03:18:14;;;;;;;28.07;19.03;;;;;;;-0.50;100.00;96954.63;5046332;28;20853;-70
2023/03/05 03:20:42;;;;;;;26.43;18.60;;;;;;;-0.53;100.00;96960.06;5069435;28;20207;-70
2023/03/05 03:23:09;;;;;;;25.43;19.00;;;;;;;-0.53;100.00;96957.47;5066466;28;20706;-69
2023/03/05 03:25:37;;;;;;;29.00;19.53;;;;;;;-0.57;100.00;96951.66;5020821;28;20450;-70
2023/03/05 03:28:06;;;;;;;28.47;18.23;;;;;;;-0.59;100.00;96946.56;5071465;28;20202;-69
2023/03/05 03:30:33;;;;;;;25.93;19.60;;;;;;;-0.57;100.00;96953.41;5070678;28;20198;-70
2023/03/05 03:33:01;;;;;;;29.53;19.63;;;;;;;-0.59;100.00;96954.38;5049420;28;20198;-69
2023/03/05 03:35:28;;;;;;;27.43;19.97;;;;;;;-0.60;100.00;96946.69;5069964;28;21000;-68
2023/03/05 03:37:56;;;;;;;28.60;19.47;;;;;;;-0.64;100.00;96940.06;5073817;28;20304;-70
2023/03/05 03:40:24;;;;;;;29.90;20.27;;;;;;;-0.60;100.00;96947.50;5071170;28;20410;-68
2023/03/05 03:42:51;;;;;;;26.30;18.97;;;;;;;-0.60;100.00;96938.88;4991261;28;20202;-67
2023/03/05 03:45:21;;;;;;;26.57;20.07;;;;;;;-0.58;100.00;96936.97;5068454;28;20229;-67
2023/03/05 03:47:49;;;;;;;29.57;19.37;;;;;;;-0.53;100.00;96940.06;5051788;28;20217;-68
2023/03/05 03:50:16;;;;;;;31.30;20.80;;;;;;;-0.58;100.00;96934.38;5049664;28;20269;-67
2023/03/05 03:52:44;;;;;;;27.83;19.50;;;;;;;-0.59;100.00;96935.34;5066623;28;20194;-69
2023/03/05 03:55:11;;;;;;;28.73;20.77;;;;;;;-0.58;100.00;96936.97;5067378;28;20225;-67
2023/03/05 03:57:39;;;;;;;25.97;18.70;;;;;;;-0.61;100.00;96930.22;5020736;28;20623;-68
2023/03/05 04:00:09;;;;;;;23.77;18.67;;;;;;;-0.61;100.00;96929.41;5069993;28;20438;-67
2023/03/05 04:02:37;;;;;;;24.70;18.13;;;;;;;-0.62;100.00;96933.78;5047646;28;20206;-68
2023/03/05 04:05:06;;;;;;;28.80;17.57;;;;;;;-0.63;100.00;96924.31;5061288;28;20271;-68
2023/03/05 04:07:34;;;;;;;24.87;18.37;;;;;;;-0.63;100.00;96923.50;5066389;28;20229;-70
2023/03/05 04:10:01;;;;;;;25.83;19.17;;;;;;;-0.60;100.00;96925.88;5071380;28;20202;-68
2023/03/05 04:12:29;;;;;;;27.47;19.13;;;;;;;-0.57;100.00;96930.00;5026089;28;20251;-68
2023/03/05 04:14:56;;;;;;;24.63;18.60;;;;;;;-0.53;100.00;96919.22;5068610;28;20905;-69
2023/03/05 04:17:24;;;;;;;28.40;19.37;;;;;;;-0.54;100.00;96928.00;5048337;28;20220;-68
2023/03/05 04:19:53;;;;;;;26.90;18.30;;;;;;;-0.52;100.00;96922.69;5071853;28;20590;-68
2023/03/05 04:22:20;;;;;;;25.10;17.93;;;;;;;-0.52;100.00;96927.88;5044092;28;20215;-68
2023/03/05 04:24:48;;;;;;;26.43;17.50;;;;;;;-0.46;100.00;96922.19;5066531;28;20220;-68
2023/03/05 04:27:16;;;;;;;24.97;18.00;;;;;;;-0.55;100.00;96909.91;5040296;28;20218;-68
2023/03/05 04:29:44;;;;;;;23.87;17.50;;;;;;;-0.52;100.00;96917.47;5056631;28;20212;-69
2023/03/05 04:32:11;;;;;;;28.77;19.30;;;;;;;-0.57;100.00;96917.81;5061108;28;20823;-68
2023/03/05 04:34:39;;;;;;;27.90;19.53;;;;;;;-0.55;100.00;96917.72;5062003;28;20230;-69
2023/03/05 04:37:08;;;;;;;22.80;16.83;;;;;;;-0.56;100.00;96916.06;5066575;28;20194;-68
2023/03/05 04:39:36;;;;;;;23.83;18.13;;;;;;;-0.64;100.00;96909.66;5068667;28;20428;-68
2023/03/05 04:42:03;;;;;;;23.53;16.57;;;;;;;-0.59;100.00;96911.91;5068400;28;20199;-68
2023/03/05 04:44:31;;;;;;;22.93;17.53;;;;;;;-0.60;100.00;96913.66;5017358;28;20537;-68
2023/03/05 04:46:58;;;;;;;21.63;16.60;;;;;;;-0.63;100.00;96906.09;5065187;28;20273;-69
2023/03/05 04:49:26;;;;;;;23.20;17.07;;;;;;;-0.53;100.00;96906.22;5048464;28;20206;-68
2023/03/05 04:51:54;;;;;;;22.77;18.77;;;;;;;-0.49;100.00;96901.59;5064171;28;20233;-70
2023/03/05 04:54:22;;;;;;;22.70;16.97;;;;;;;-0.55;100.00;96897.72;5070257;28;20194;-71
2023/03/05 04:56:50;;;;;;;22.67;16.53;;;;;;;-0.60;100.00;96900.66;5071222;28;20217;-70
2023/03/05 04:59:18;;;;;;;23.50;16.63;;;;;;;-0.55;100.00;96897.72;5003200;28;20696;-70
2023/03/05 05:01:45;;;;;;;23.40;17.33;;;;;;;-0.56;100.00;96897.84;5061455;28;20240;-70
2023/03/05 05:04:13;;;;;;;20.90;16.33;;;;;;;-0.52;100.00;96897.47;5050256;28;20511;-70
2023/03/05 05:06:40;;;;;;;22.73;15.47;;;;;;;-0.52;100.00;96897.47;5065044;28;20543;-70
2023/03/05 05:09:08;;;;;;;19.83;15.70;;;;;;;-0.52;100.00;96891.44;5059524;28;20211;-72
2023/03/05 05:11:37;;;;;;;24.23;16.00;;;;;;;-0.45;100.00;96888.22;5068092;28;20203;-71
2023/03/05 05:14:05;;;;;;;22.83;17.77;;;;;;;-0.48;100.00;96893.66;5070538;28;20195;-71
2023/03/05 05:16:32;;;;;;;25.00;17.17;;;;;;;-0.43;100.00;96893.31;5024434;28;20501;-70
2023/03/05 05:19:00;;;;;;;24.80;17.10;;;;;;;-0.46;100.00;96890.94;5056993;28;20217;-70
2023/03/05 05:21:28;;;;;;;26.13;17.43;;;;;;;-0.51;100.00;96887.88;5064335;28;20625;-70
2023/03/05 05:23:56;;;;;;;22.57;16.97;;;;;;;-0.44;100.00;96892.47;5073596;28;20293;-70
2023/03/05 05:26:23;;;;;;;22.60;17.60;;;;;;;-0.44;100.00;96896.88;5068834;28;20728;-71
2023/03/05 05:28:52;;;;;;;25.97;17.57;;;;;;;-0.45;100.00;96892.59;5076136;28;20210;-71
2023/03/05 05:31:20;;;;;;;23.03;17.73;;;;;;;-0.47;100.00;96891.91;5015792;28;20210;-71
2023/03/05 05:33:47;;;;;;;24.17;17.20;;;;;;;-0.62;100.00;96891.34;5067060;28;20202;-70
2023/03/05 05:36:18;;;;;;;23.20;16.87;;;;;;;-0.69;100.00;96896.19;5054204;28;20222;-72
2023/03/05 05:38:46;;;;;;;22.83;17.60;;;;;;;-0.67;100.00;96896.06;5072162;28;21823;-71
2023/03/05 05:41:16;;;;;;;23.90;18.10;;;;;;;-0.63;100.00;96900.91;5072791;28;20213;-71
2023/03/05 05:43:44;;;;;;;22.67;16.40;;;;;;;-0.59;100.00;96896.28;5071346;28;20199;-70
2023/03/05 05:46:17;;;;;;;27.07;17.57;;;;;;;-0.76;100.00;96882.00;5047704;28;20729;-70
2023/03/05 05:48:45;;;;;;;28.47;18.57;;;;;;;-0.69;100.00;96893.59;5059472;28;20292;-70
2023/03/05 05:51:14;;;;;;;24.33;17.53;;;;;;;-0.63;100.00;96898.28;5052027;28;20708;-71
2023/03/05 05:53:42;;;;;;;23.80;17.33;;;;;;;-0.57;100.00;96898.75;5039284;28;20780;-69
2023/03/05 05:56:11;;;;;;;26.93;17.13;;;;;;;-0.61;100.00;96895.59;5069826;28;20218;-68
2023/03/05 05:58:40;;;;;;;24.27;16.80;;;;;;;-0.53;100.00;96900.19;5062013;28;20199;-69
2023/03/05 06:01:20;;;;;;;25.67;17.03;;;;;;;-0.49;100.00;96904.22;5058150;28;20659;-71
2023/03/05 06:03:48;;;;;;;24.27;17.30;;;;;;;-0.51;100.00;96906.13;5018039;28;20214;-70
2023/03/05 06:06:18;;;;;;;23.27;16.50;;;;;;;-0.47;100.00;96899.72;5063274;28;20247;-70
2023/03/05 06:08:46;;;;;;;24.33;18.30;;;;;;;-0.41;100.00;96907.03;5069679;28;20315;-70
2023/03/05 06:11:14;;;;;;;22.80;16.63;;;;;;;-0.55;100.00;96897.72;5041178;28;21090;-70
2023/03/05 06:13:44;;;;;;;24.37;18.20;;;;;;;-0.54;100.00;96907.16;5046486;28;20507;-71
2023/03/05 06:16:15;;;;;;;26.80;17.87;;;;;;;-0.56;100.00;96905.66;5065391;28;20229;-71
2023/03/05 06:18:44;;;;;;;24.20;16.63;;;;;;;-0.47;100.00;96900.53;5007169;28;20213;-71
2023/03/05 06:21:13;;;;;;;21.97;17.47;;;;;;;-0.56;100.00;96905.66;5064323;28;20202;-71
2023/03/05 06:23:41;;;;;;;24.17;16.60;;;;;;;-0.51;100.00;96908.72;5046122;28;20669;-71
2023/03/05 06:26:11;;;;;;;22.90;16.63;;;;;;;-0.52;100.00;96907.88;5065553;28;20231;-71
2023/03/05 06:28:39;;;;;;;26.83;17.47;;;;;;;-0.51;100.00;96906.13;5065755;28;20206;-71
2023/03/05 06:31:08;;;;;;;26.10;16.97;;;;;;;-0.44;100.00;96902.06;5068413;28;20197;-71
2023/03/05 06:33:40;;;;;;;22.73;15.73;;;;;;;-0.48;100.00;96906.69;5041607;28;20264;-71
2023/03/05 06:36:11;;;;;;;21.60;16.37;;;;;;;-0.45;100.00;96901.22;5060461;28;20233;-74
2023/03/05 06:38:39;;;;;;;25.27;18.13;;;;;;;-0.41;100.00;96904.44;5049243;28;20210;-70
2023/03/05 06:41:10;;;;;;;24.43;17.53;;;;;;;-0.35;100.00;96909.13;5072267;28;20955;-71
2023/03/05 06:43:39;;;;;;;25.23;16.37;;;;;;;-0.38;100.00;96909.38;5071631;28;20257;-72
2023/03/05 06:46:08;;;;;;;23.87;17.87;;;;;;;-0.27;100.00;96899.88;5068375;28;20313;-71
2023/03/05 06:48:36;;;;;;;21.70;15.97;;;;;;;-0.31;100.00;96894.91;5051195;28;20203;-70
2023/03/05 06:51:04;;;;;;;22.13;16.37;;;;;;;-0.22;100.00;96902.94;5035218;28;20202;-71
2023/03/05 06:53:33;;;;;;;23.30;16.43;;;;;;;-0.06;100.00;96903.38;5070008;28;20851;-72
2023/03/05 06:56:01;;;;;;;20.63;15.23;;;;;;;-0.08;100.00;96888.81;5060499;28;20221;-71
2023/03/05 06:58:28;;;;;;;24.87;17.23;;;;;;;-0.16;100.00;96899.88;5070275;28;20207;-69
2023/03/05 07:00:56;;;;;;;22.53;15.53;;;;;;;-0.11;100.00;96889.91;5063516;28;20204;-71
2023/03/05 07:03:23;;;;;;;22.30;16.47;;;;;;;-0.08;100.00;96889.66;5071391;28;20234;-71
2023/03/05 07:05:51;;;;;;;24.27;16.23;;;;;;;-0.04;100.00;96892.81;5016784;28;20237;-72
2023/03/05 07:08:18;;;;;;;22.73;15.07;;;;;;;-0.05;100.00;96886.78;5068463;28;20760;-69
2023/03/05 07:10:47;;;;;;;19.43;16.10;;;;;;;0.15;100.00;96879.13;5050888;28;20199;-72
2023/03/05 07:13:15;;;;;;;23.17;15.63;;;;;;;0.07;100.00;96882.38;5044309;28;20709;-72
2023/03/05 07:15:43;;;;;;;22.13;16.83;;;;;;;-0.02;100.00;96883.94;5066224;28;20874;-72
2023/03/05 07:18:11;;;;;;;20.47;15.23;;;;;;;0.01;100.00;96892.47;5068648;28;20244;-70
2023/03/05 07:20:39;;;;;;;21.97;15.97;;;;;;;0.04;100.00;96890.44;5038288;28;20210;-72
2023/03/05 07:23:07;;;;;;;21.87;16.63;;;;;;;0.04;100.00;96873.97;5051195;28;20207;-72
2023/03/05 07:25:35;;;;;;;22.30;16.17;;;;;;;0.13;100.00;96881.03;5062677;28;20223;-72
2023/03/05 07:28:05;;;;;;;23.63;16.40;;;;;;;0.05;100.00;96880.84;5056113;28;20225;-71
2023/03/05 07:30:34;;;;;;;25.30;15.70;;;;;;;-0.06;100.00;96879.94;5066671;28;20230;-72
2023/03/05 07:33:01;;;;;;;25.03;17.00;;;;;;;0.00;100.00;96878.63;5068143;28;20269;-72
2023/03/05 07:35:29;;;;;;;22.37;16.73;;;;;;;0.06;100.00;96879.88;5054816;28;20222;-73
2023/03/05 07:37:56;;;;;;;24.07;16.10;;;;;;;0.15;100.00;96879.13;5031521;28;20969;-71
2023/03/05 07:40:24;;;;;;;26.20;15.33;;;;;;;0.27;100.00;96877.28;5060320;28;20226;-71
2023/03/05 07:42:53;;;;;;;21.63;15.17;;;;;;;0.31;100.00;96873.47;5055474;28;20200;-72
2023/03/05 07:45:22;;;;;;;21.30;14.70;;;;;;;0.36;100.00;96867.88;5045680;28;20214;-71
2023/03/05 07:47:49;;;;;;;19.20;14.30;;;;;;;0.39;100.00;96868.47;5073877;28;20226;-71
2023/03/05 07:50:19;;;;;;;23.90;16.50;;;;;;;0.44;100.00;96868.06;5056235;28;20194;-71
2023/03/05 07:52:46;;;;;;;22.13;14.50;;;;;;;0.48;100.00;96856.44;5028835;28;20221;-71
2023/03/05 07:55:14;;;;;;;22.30;14.37;;;;;;;0.42;100.00;96863.00;5048740;28;20226;-70
2023/03/05 07:57:41;;;;;;;19.07;13.80;;;;;;;0.35;100.00;96869.66;5054860;28;20203;-71
2023/03/05 08:00:10;;;;;;;17.53;14.47;;;;;;;0.44;100.00;96860.25;5052159;28;20194;-71
2023/03/05 08:02:39;;;;;;;20.57;14.17;;;;;;;0.44;100.00;96855.03;5047932;28;20240;-71
2023/03/05 08:05:08;;;;;;;22.90;14.07;;;;;;;0.43;100.00;96858.59;5060912;28;20221;-71
2023/03/05 08:07:35;;;;;;;22.87;13.77;;;;;;;0.38;100.00;96864.22;5039633;28;20303;-69
2023/03/05 08:10:04;;;;;;;18.53;13.70;;;;;;;0.37;100.00;96861.72;5029286;28;20221;-70
2023/03/05 08:12:31;;;;;;;23.13;14.07;;;;;;;0.33;100.00;96850.72;5048459;28;20963;-71
2023/03/05 08:14:59;;;;;;;20.23;14.33;;;;;;;0.48;100.00;96845.19;5057808;28;20226;-72
2023/03/05 08:17:26;;;;;;;21.03;13.67;;;;;;;0.50;100.00;96851.09;5062297;28;20225;-69
2023/03/05 08:19:58;;;;;;;20.93;16.00;;;;;;;0.60;100.00;96846.75;5063167;28;20202;-71
2023/03/05 08:22:26;;;;;;;19.13;14.97;;;;;;;0.77;100.00;96853.16;5014261;28;20406;-70
2023/03/05 08:24:54;;;;;;;20.33;13.93;;;;;;;0.89;100.00;96842.63;5031891;28;20431;-70
2023/03/05 08:27:22;;;;;;;19.37;13.40;;;;;;;1.25;100.00;96841.25;5042026;28;20245;-72
2023/03/05 08:29:49;;;;;;;19.13;12.20;;;;;;;1.32;100.00;96841.50;5067231;28;20203;-70
2023/03/05 08:32:17;;;;;;;17.23;12.73;;;;;;;1.34;100.00;96830.94;5063345;28;20209;-69
2023/03/05 08:34:44;;;;;;;20.83;13.70;;;;;;;1.64;100.00;96835.25;5066053;28;20214;-70
2023/03/05 08:37:13;;;;;;;15.10;12.53;;;;;;;1.55;100.00;96834.28;5040733;28;20721;-70
2023/03/05 08:39:41;;;;;;;16.37;11.50;;;;;;;1.70;100.00;96834.69;4998554;28;20835;-69
2023/03/05 08:42:08;;;;;;;17.13;11.27;;;;;;;1.73;99.49;96828.38;5062948;28;20206;-70
2023/03/05 08:44:36;;;;;;;19.10;12.03;;;;;;;1.88;99.64;96824.38;5050646;28;20758;-69
2023/03/05 08:47:04;;;;;;;16.73;11.33;;;;;;;1.64;98.53;96823.97;5060600;28;20614;-70
2023/03/05 08:49:31;;;;;;;15.87;11.23;;;;;;;1.56;97.81;96835.94;5046592;28;20709;-70
2023/03/05 08:51:59;;;;;;;19.63;11.13;;;;;;;1.72;97.89;96824.13;5066215;28;20217;-71
2023/03/05 08:54:28;;;;;;;13.70;9.97;;;;;;;1.66;95.62;96830.69;5004709;28;20504;-70
2023/03/05 08:56:55;;;;;;;14.87;10.73;;;;;;;1.46;95.06;96831.66;5071044;28;20597;-72
2023/03/05 08:59:23;;;;;;;13.40;10.60;;;;;;;1.45;96.81;96833.44;5045077;28;20411;-69
2023/03/05 09:01:50;;;;;;;14.93;10.33;;;;;;;1.56;97.17;96822.88;5067959;28;20202;-69
2023/03/05 09:04:18;;;;;;;15.47;11.87;;;;;;;1.63;98.31;96823.13;5069944;28;20428;-69
2023/03/05 09:06:46;;;;;;;17.80;11.40;;;;;;;1.62;97.92;96824.09;5065506;28;20597;-69
2023/03/05 09:09:13;;;;;;;11.80;9.83;;;;;;;1.71;98.05;96817.25;5050821;28;20359;-69
2023/03/05 09:11:42;;;;;;;15.27;11.40;;;;;;;1.65;98.12;96815.19;5017838;28;20218;-69
2023/03/05 09:14:10;;;;;;;16.10;10.77;;;;;;;1.41;98.13;96812.00;5058191;28;20202;-69
2023/03/05 09:16:39;;;;;;;14.87;11.20;;;;;;;1.21;99.47;96811.16;5064771;28;20226;-70
2023/03/05 09:19:09;;;;;;;15.70;12.07;;;;;;;1.07;100.00;96816.72;5047027;28;20202;-70
2023/03/05 09:21:36;;;;;;;14.30;11.50;;;;;;;0.99;100.00;96810.41;5068241;28;20199;-70
2023/03/05 09:24:04;;;;;;;17.60;11.87;;;;;;;1.05;100.00;96821.25;5049921;28;21411;-70
2023/03/05 09:26:32;;;;;;;17.83;11.70;;;;;;;1.02;100.00;96819.75;5023234;28;20233;-70
2023/03/05 09:29:01;;;;;;;19.77;14.00;;;;;;;0.86;100.00;96820.25;5069349;28;21164;-70
2023/03/05 09:31:28;;;;;;;17.97;13.23;;;;;;;0.79;100.00;96819.13;5027387;28;20209;-70
2023/03/05 09:33:56;;;;;;;19.10;13.90;;;;;;;0.74;100.00;96822.13;5065630;28;20260;-70
2023/03/05 09:36:26;;;;;;;17.23;13.97;;;;;;;0.86;100.00;96821.06;5067416;28;20317;-70
2023/03/05 09:38:54;;;;;;;19.33;14.57;;;;;;;0.88;100.00;96813.13;5002453;28;21019;-70
2023/03/05 09:41:29;;;;;;;19.13;13.37;;;;;;;0.95;100.00;96823.84;5072819;28;20198;-70
2023/03/05 09:44:05;;;;;;;20.87;13.13;;;;;;;1.14;100.00;96816.06;5038642;28;20191;-71
2023/03/05 09:46:43;;;;;;;17.90;13.27;;;;;;;1.21;100.00;96823.34;5040975;28;20237;-69
2023/03/05 09:49:16;;;;;;;17.60;13.63;;;;;;;1.39;100.00;96816.53;5070331;28;20594;-70
2023/03/05 09:51:45;;;;;;;19.43;13.67;;;;;;;1.66;100.00;96820.25;5061840;28;20195;-70
2023/03/05 09:54:15;;;;;;;20.80;13.93;;;;;;;1.98;100.00;96811.31;5050684;28;20301;-70
2023/03/05 09:56:46;;;;;;;18.27;13.93;;;;;;;2.00;100.00;96806.78;5046776;28;20205;-69
2023/03/05 09:59:21;;;;;;;18.97;13.60;;;;;;;1.88;100.00;96811.31;5033283;28;20206;-70
2023/03/05 10:01:48;;;;;;;17.10;13.33;;;;;;;2.08;100.00;96808.69;5042226;28;20272;-69
2023/03/05 10:04:19;;;;;;;18.93;12.83;;;;;;;2.29;100.00;96800.69;5065535;28;20195;-69
2023/03/05 10:06:50;;;;;;;23.07;14.70;;;;;;;2.15;100.00;96790.69;5040868;28;20429;-70
2023/03/05 10:09:24;;;;;;;16.10;11.63;;;;;;;2.07;100.00;96788.75;5050452;28;20214;-69
2023/03/05 10:11:55;;;;;;;16.03;12.50;;;;;;;2.10;100.00;96787.66;5032859;28;20201;-70
2023/03/05 10:14:27;;;;;;;16.70;12.17;;;;;;;1.99;100.00;96767.72;5029127;28;20214;-70
2023/03/05 10:17:25;;;;;;;14.20;10.23;;;;;;;2.03;100.00;96779.56;5046480;28;20204;-69
2023/03/05 10:20:25;;;;;;;15.60;11.23;;;;;;;2.10;100.00;96780.63;5066339;28;20452;-70
2023/03/05 10:23:13;;;;;;;15.57;10.17;;;;;;;2.15;99.56;96777.59;5020709;28;20207;-70
2023/03/05 10:25:55;;;;;;;13.40;10.30;;;;;;;2.15;96.08;96769.78;5031112;28;20236;-70
2023/03/05 10:28:32;;;;;;;12.73;10.50;;;;;;;2.04;97.24;96773.34;5070222;28;20229;-70
2023/03/05 10:31:10;;;;;;;13.97;10.30;;;;;;;2.12;97.63;96767.44;5003588;28;20214;-69
2023/03/05 10:33:43;;;;;;;11.37;9.83;;;;;;;2.13;96.35;96766.47;5042057;28;20209;-69
2023/03/05 10:36:27;;;;;;;12.60;9.90;;;;;;;2.00;95.16;96764.97;5068523;28;20218;-70
2023/03/05 10:39:08;;;;;;;14.80;9.40;;;;;;;2.01;94.43;96755.34;5069480;28;20198;-70
2023/03/05 10:41:42;;;;;;;12.23;9.67;;;;;;;2.27;93.27;96752.94;5038623;28;20347;-70
2023/03/05 10:44:15;;;;;;;12.90;9.07;;;;;;;2.16;91.52;96759.16;5073893;28;20226;-70
2023/03/05 10:46:44;;;;;;;12.00;9.53;;;;;;;2.13;90.96;96756.00;5009185;28;20211;-69
2023/03/05 10:49:17;;;;;;;11.10;8.43;;;;;;;2.08;91.65;96751.19;5062334;28;20589;-70
2023/03/05 10:51:50;;;;;;;11.77;9.87;;;;;;;1.93;90.80;96735.13;5069743;28;20539;-69
2023/03/05 10:54:24;;;;;;;13.13;9.13;;;;;;;1.85;90.07;96732.41;5037120;28;20209;-70
2023/03/05 10:57:02;;;;;;;10.53;8.30;;;;;;;1.93;89.41;96736.94;5064982;28;20255;-69
2023/03/05 10:59:30;;;;;;;12.50;8.27;;;;;;;2.04;89.60;96731.53;5050699;28;20193;-69
2023/03/05 11:02:07;;;;;;;11.67;8.30;;;;;;;1.92;87.82;96730.06;5012006;28;20202;-70
2023/03/05 11:04:37;;;;;;;10.37;7.90;;;;;;;1.93;88.48;96722.06;5065638;28;20302;-69
2023/03/05 11:07:29;;;;;;;14.10;8.83;;;;;;;1.79;88.61;96731.16;5063140;28;20308;-70
2023/03/05 11:10:16;;;;;;;10.90;8.73;;;;;;;1.80;90.17;96722.38;5064336;28;20214;-70
2023/03/05 11:12:45;;;;;;;11.40;9.77;;;;;;;1.77;90.20;96724.44;5041079;28;20207;-70
2023/03/05 11:15:29;;;;;;;12.13;9.87;;;;;;;1.76;90.03;96721.00;5066691;28;20218;-70
2023/03/05 11:18:22;;;;;;;12.63;10.10;;;;;;;1.74;91.04;96717.72;4996843;28;20215;-71
2023/03/05 11:20:51;;;;;;;14.97;11.73;;;;;;;1.77;91.15;96716.63;5066036;28;20202;-70
2023/03/05 11:23:22;;;;;;;14.43;11.00;;;;;;;1.81;91.22;96712.75;5067960;28;20198;-74
2023/03/05 11:25:55;;;;;;;11.10;9.53;;;;;;;1.76;90.39;96712.34;5047385;28;20792;-70